Time;durP1;ratioP1;P1;durP2;ratioP2;P2;SDS_P1;SDS_P2;PMS_P1;PMS_P2;Temp;Humidity;BMP_temperature;BMP_pressure;BME280_temperature;BME280_humidity;BME280_pressure;Samples;Min_cycle;Max_cycle;Signal;HPM_P1;HPM_P2
2022/03/05 00:00:09;;;;;;;31.77;19.23;;;9.70;49.10;;;;;;5073077;28;20126;-83
2022/03/05 00:02:34;;;;;;;39.45;22.40;;;9.50;50.30;;;;;;5055295;28;20044;-83
2022/03/05 00:05:00;;;;;;;34.67;20.92;;;9.60;50.50;;;;;;5072726;28;20434;-82
2022/03/05 00:07:26;;;;;;;29.35;19.58;;;9.60;50.20;;;;;;5073169;28;20570;-83
2022/03/05 00:09:51;;;;;;;32.65;20.23;;;9.60;49.30;;;;;;5073504;28;20094;-83
2022/03/05 00:12:17;;;;;;;32.72;16.67;;;9.50;48.90;;;;;;5073152;28;20102;-83
2022/03/05 00:14:43;;;;;;;30.55;18.25;;;9.60;48.30;;;;;;5072912;28;20087;-83
2022/03/05 00:17:09;;;;;;;28.77;17.90;;;9.60;47.30;;;;;;5072969;28;20036;-82
2022/03/05 00:19:34;;;;;;;29.40;17.17;;;9.60;47.50;;;;;;5073077;28;20028;-83
2022/03/05 00:22:01;;;;;;;24.77;14.93;;;9.60;47.50;;;;;;5054826;28;20033;-83
2022/03/05 00:24:27;;;;;;;25.25;15.75;;;9.70;48.50;;;;;;5072529;28;20064;-83
2022/03/05 00:26:54;;;;;;;27.05;16.35;;;9.60;48.30;;;;;;5072835;28;20076;-83
2022/03/05 00:29:19;;;;;;;34.92;17.45;;;9.50;48.10;;;;;;5072597;28;20028;-81
2022/03/05 00:31:45;;;;;;;29.02;17.48;;;9.50;48.20;;;;;;5072627;28;20123;-82
2022/03/05 00:34:11;;;;;;;30.75;16.70;;;9.50;48.40;;;;;;5046342;28;20044;-82
2022/03/05 00:36:38;;;;;;;28.38;16.50;;;9.40;48.30;;;;;;5072606;28;20033;-82
2022/03/05 00:39:04;;;;;;;27.13;15.50;;;9.40;49.00;;;;;;5054644;28;20096;-81
2022/03/05 00:41:30;;;;;;;29.73;15.57;;;9.30;48.90;;;;;;5071976;28;20127;-82
2022/03/05 00:43:56;;;;;;;23.52;14.68;;;9.40;47.90;;;;;;5071746;28;20444;-81
2022/03/05 00:46:22;;;;;;;26.05;15.55;;;9.30;47.40;;;;;;5072494;28;20048;-81
2022/03/05 00:48:47;;;;;;;23.73;14.75;;;9.30;47.50;;;;;;5073140;28;20038;-81
2022/03/05 00:51:13;;;;;;;28.83;16.38;;;9.40;47.20;;;;;;5072070;28;20048;-82
2022/03/05 00:53:39;;;;;;;26.77;16.35;;;9.30;47.70;;;;;;5072216;28;20064;-82
2022/03/05 00:56:05;;;;;;;27.42;16.30;;;9.30;47.00;;;;;;5072300;28;20103;-82
2022/03/05 00:58:31;;;;;;;28.52;15.75;;;9.40;46.90;;;;;;5072627;28;20036;-81
2022/03/05 01:00:57;;;;;;;25.42;14.60;;;9.30;47.20;;;;;;5054272;28;20052;-81
2022/03/05 01:03:22;;;;;;;23.88;15.32;;;9.30;47.30;;;;;;5044608;28;20485;-82
2022/03/05 01:05:48;;;;;;;24.00;13.93;;;9.40;47.00;;;;;;5063163;28;20043;-82
2022/03/05 01:08:14;;;;;;;25.27;15.25;;;9.40;46.00;;;;;;5071884;28;20029;-82
2022/03/05 01:10:40;;;;;;;20.02;13.48;;;9.40;45.50;;;;;;5071190;28;20037;-82
2022/03/05 01:13:05;;;;;;;21.30;14.15;;;9.30;46.20;;;;;;5073517;28;20144;-83
2022/03/05 01:15:31;;;;;;;23.05;13.70;;;9.20;46.80;;;;;;5083845;28;20511;-83
2022/03/05 01:17:58;;;;;;;20.73;13.60;;;9.10;47.10;;;;;;5053371;28;20778;-84
2022/03/05 01:20:23;;;;;;;21.08;12.43;;;9.10;47.50;;;;;;5059949;28;20070;-84
2022/03/05 01:22:49;;;;;;;24.88;13.60;;;9.10;47.10;;;;;;5071885;28;20091;-84
2022/03/05 01:25:15;;;;;;;28.00;13.55;;;9.20;47.10;;;;;;5056563;28;20044;-84
2022/03/05 01:27:40;;;;;;;20.08;13.43;;;9.10;47.60;;;;;;5072385;28;20040;-84
2022/03/05 01:30:06;;;;;;;22.88;12.68;;;9.00;47.80;;;;;;5072260;28;20111;-85
2022/03/05 01:32:32;;;;;;;23.50;14.80;;;9.00;48.40;;;;;;5073394;28;20024;-85
2022/03/05 01:34:58;;;;;;;23.75;13.68;;;9.00;47.40;;;;;;5055360;28;20392;-86
2022/03/05 01:37:23;;;;;;;16.80;11.98;;;8.80;48.10;;;;;;5074289;28;20107;-86
2022/03/05 01:39:49;;;;;;;22.40;13.10;;;8.90;48.00;;;;;;5073983;28;20028;-86
2022/03/05 01:42:19;;;;;;;20.77;13.82;;;8.90;48.90;;;;;;5073631;28;20064;-86
2022/03/05 01:44:45;;;;;;;20.67;12.52;;;8.90;48.60;;;;;;5073051;28;20044;-86
2022/03/05 01:47:10;;;;;;;21.55;12.63;;;8.80;48.80;;;;;;5072754;28;20048;-87
2022/03/05 01:49:36;;;;;;;22.42;13.75;;;8.80;48.20;;;;;;5072377;28;20040;-83
2022/03/05 01:52:02;;;;;;;21.95;14.52;;;8.80;48.90;;;;;;5070005;28;20048;-83
2022/03/05 01:54:30;;;;;;;20.73;14.05;;;8.70;48.90;;;;;;5076995;28;20035;-85
2022/03/05 01:56:57;;;;;;;27.15;16.70;;;8.80;48.90;;;;;;5078217;28;20045;-86
2022/03/05 01:59:22;;;;;;;27.63;16.38;;;8.60;49.10;;;;;;5076665;28;20040;-84
2022/03/05 02:01:49;;;;;;;22.83;13.90;;;8.60;50.10;;;;;;5076500;28;20047;-84
2022/03/05 02:04:14;;;;;;;24.80;17.17;;;8.60;49.60;;;;;;5064338;28;20506;-84
2022/03/05 02:06:41;;;;;;;32.75;16.33;;;8.60;49.50;;;;;;5078997;28;20049;-84
2022/03/05 02:09:06;;;;;;;22.50;16.25;;;8.60;49.90;;;;;;5079894;28;20140;-85
2022/03/05 02:11:32;;;;;;;24.77;16.77;;;8.60;50.00;;;;;;5078754;28;20561;-83
2022/03/05 02:13:58;;;;;;;23.05;15.13;;;8.50;50.30;;;;;;5061661;28;20024;-84
2022/03/05 02:16:24;;;;;;;28.55;16.25;;;8.50;49.90;;;;;;5079080;28;20041;-83
2022/03/05 02:18:52;;;;;;;25.95;16.27;;;8.60;49.70;;;;;;5078377;28;20033;-84
2022/03/05 02:21:20;;;;;;;29.45;17.80;;;8.60;49.60;;;;;;5091496;28;20510;-85
2022/03/05 02:23:46;;;;;;;27.80;16.75;;;8.50;49.80;;;;;;5068206;28;20036;-85
2022/03/05 02:26:11;;;;;;;25.42;16.05;;;8.50;49.30;;;;;;5063954;28;20071;-86
2022/03/05 02:28:38;;;;;;;30.58;18.77;;;8.50;49.60;;;;;;5077760;28;20353;-86
2022/03/05 02:31:04;;;;;;;30.08;18.15;;;8.40;50.10;;;;;;5057875;28;20044;-86
2022/03/05 02:33:30;;;;;;;31.85;20.02;;;8.30;50.50;;;;;;5058542;28;20048;-87
2022/03/05 02:35:56;;;;;;;36.08;21.50;;;8.20;50.60;;;;;;5076871;28;20036;-87
2022/03/05 02:38:23;;;;;;;30.52;18.15;;;8.20;51.00;;;;;;5076479;28;20026;-87
2022/03/05 02:40:50;;;;;;;31.80;19.77;;;8.10;51.30;;;;;;5075837;28;20044;-86
2022/03/05 02:43:17;;;;;;;38.63;22.13;;;8.10;51.40;;;;;;5075601;28;20055;-85
2022/03/05 02:45:43;;;;;;;37.47;21.88;;;8.00;52.30;;;;;;5057044;28;20063;-86
2022/03/05 02:48:13;;;;;;;33.35;21.45;;;8.00;52.30;;;;;;5075418;28;20116;-85
2022/03/05 02:50:39;;;;;;;36.13;23.23;;;8.00;52.80;;;;;;5074725;28;20461;-85
2022/03/05 02:53:05;;;;;;;35.47;22.55;;;7.90;52.50;;;;;;5066163;28;20075;-86
2022/03/05 02:55:31;;;;;;;30.60;19.95;;;7.90;53.10;;;;;;5072566;28;20041;-86
2022/03/05 02:57:57;;;;;;;34.47;20.05;;;7.80;53.10;;;;;;5075117;28;20112;-86
2022/03/05 03:00:23;;;;;;;30.92;19.05;;;7.80;52.30;;;;;;5073648;28;20136;-86
2022/03/05 03:02:49;;;;;;;32.60;20.20;;;7.90;52.30;;;;;;5073452;28;20037;-86
2022/03/05 03:05:16;;;;;;;31.35;19.25;;;7.90;52.10;;;;;;5074655;28;20111;-86
2022/03/05 03:07:43;;;;;;;27.17;19.10;;;7.70;51.80;;;;;;5074818;28;20040;-86
2022/03/05 03:10:10;;;;;;;28.85;18.05;;;7.70;51.70;;;;;;5068357;28;20036;-87
2022/03/05 03:12:36;;;;;;;31.67;16.85;;;7.60;51.50;;;;;;5074497;28;20051;-86
2022/03/05 03:15:04;;;;;;;26.15;17.90;;;7.70;52.10;;;;;;5075094;28;20080;-88
2022/03/05 03:17:38;;;;;;;27.27;16.67;;;7.80;51.50;;;;;;5074701;28;20122;-87
2022/03/05 03:20:04;;;;;;;25.77;16.58;;;7.80;50.80;;;;;;5074858;28;20479;-87
2022/03/05 03:22:30;;;;;;;24.77;16.13;;;7.90;50.40;;;;;;5074199;28;20032;-85
2022/03/05 03:24:55;;;;;;;29.50;17.52;;;8.00;49.40;;;;;;5072595;28;20047;-82
2022/03/05 03:27:21;;;;;;;24.25;15.55;;;8.00;49.70;;;;;;5073550;28;20040;-82
2022/03/05 03:29:46;;;;;;;23.88;15.68;;;8.00;49.90;;;;;;5054866;28;20040;-82
2022/03/05 03:32:12;;;;;;;25.52;16.27;;;8.10;48.50;;;;;;5072878;28;20037;-82
2022/03/05 03:34:38;;;;;;;26.85;15.70;;;8.00;48.80;;;;;;5064093;28;20095;-83
2022/03/05 03:37:04;;;;;;;32.20;17.63;;;8.00;48.60;;;;;;5073205;28;20082;-82
2022/03/05 03:39:29;;;;;;;27.80;17.52;;;8.10;48.20;;;;;;5055318;28;20068;-82
2022/03/05 03:41:55;;;;;;;27.98;16.58;;;7.90;48.80;;;;;;5073285;28;20039;-82
2022/03/05 03:44:21;;;;;;;28.48;16.77;;;7.70;49.30;;;;;;5064309;28;20443;-84
2022/03/05 03:46:47;;;;;;;26.77;15.77;;;7.80;49.20;;;;;;5072600;28;20033;-83
2022/03/05 03:49:13;;;;;;;26.60;17.45;;;7.80;48.20;;;;;;5072234;28;20090;-83
2022/03/05 03:51:38;;;;;;;33.17;17.48;;;7.80;49.50;;;;;;5072322;28;20495;-83
2022/03/05 03:54:04;;;;;;;25.30;16.90;;;7.70;48.70;;;;;;5060153;28;20045;-83
2022/03/05 03:56:30;;;;;;;27.83;16.65;;;7.60;48.20;;;;;;5072049;28;20593;-82
2022/03/05 03:58:55;;;;;;;25.88;16.98;;;7.70;48.60;;;;;;5072172;28;20062;-82
2022/03/05 04:01:21;;;;;;;22.90;15.60;;;7.60;49.50;;;;;;5072115;28;20041;-82
2022/03/05 04:03:46;;;;;;;24.35;15.80;;;7.60;48.40;;;;;;5071884;28;20044;-82
2022/03/05 04:06:12;;;;;;;24.65;14.75;;;7.60;48.60;;;;;;5072606;28;20093;-82
2022/03/05 04:08:43;;;;;;;24.20;14.38;;;7.60;48.10;;;;;;5071871;28;20148;-82
2022/03/05 04:11:13;;;;;;;22.85;14.50;;;7.60;48.50;;;;;;5067998;28;20029;-82
2022/03/05 04:13:39;;;;;;;23.70;14.70;;;7.60;47.60;;;;;;5069540;28;20086;-82
2022/03/05 04:16:06;;;;;;;23.52;16.25;;;7.60;48.20;;;;;;5061510;28;20518;-82
2022/03/05 04:18:32;;;;;;;25.23;15.43;;;7.60;48.20;;;;;;5061998;28;20134;-82
2022/03/05 04:20:58;;;;;;;25.27;16.23;;;7.50;47.70;;;;;;5072921;28;20137;-83
2022/03/05 04:23:28;;;;;;;24.48;15.45;;;7.50;47.90;;;;;;5054004;28;20024;-82
2022/03/05 04:25:55;;;;;;;26.48;16.33;;;7.50;48.90;;;;;;5053465;28;20036;-82
2022/03/05 04:28:20;;;;;;;24.50;15.75;;;7.50;48.00;;;;;;5072331;28;20035;-82
2022/03/05 04:30:46;;;;;;;24.13;16.27;;;7.50;47.50;;;;;;5071369;28;20110;-82
2022/03/05 04:33:12;;;;;;;27.88;18.00;;;7.50;48.30;;;;;;5072452;28;20037;-81
2022/03/05 04:35:37;;;;;;;28.15;16.75;;;7.50;48.90;;;;;;5071558;28;20033;-82
2022/03/05 04:38:03;;;;;;;28.25;17.42;;;7.40;48.30;;;;;;5072150;28;20036;-81
2022/03/05 04:40:29;;;;;;;28.25;18.50;;;7.40;48.60;;;;;;5071753;28;20035;-81
2022/03/05 04:42:55;;;;;;;29.17;18.38;;;7.20;48.30;;;;;;5072105;28;20094;-81
2022/03/05 04:45:21;;;;;;;25.27;16.60;;;7.20;48.30;;;;;;5053100;28;20094;-81
2022/03/05 04:47:52;;;;;;;26.60;16.50;;;7.20;48.50;;;;;;5071782;28;20396;-81
2022/03/05 04:50:17;;;;;;;29.20;18.10;;;7.10;48.40;;;;;;5071847;28;20040;-83
2022/03/05 04:52:43;;;;;;;24.15;15.88;;;7.00;48.60;;;;;;5070958;28;20471;-82
2022/03/05 04:55:10;;;;;;;27.17;17.58;;;6.90;49.00;;;;;;5071217;28;20795;-82
2022/03/05 04:57:49;;;;;;;27.65;16.95;;;6.90;49.10;;;;;;5055157;28;20439;-81
2022/03/05 05:00:22;;;;;;;26.77;16.60;;;7.00;49.40;;;;;;5073594;28;20192;-82
2022/03/05 05:02:48;;;;;;;32.25;17.90;;;7.00;49.90;;;;;;5055480;28;20039;-83
2022/03/05 05:05:14;;;;;;;28.25;17.55;;;7.00;49.50;;;;;;5072508;28;20036;-82
2022/03/05 05:07:39;;;;;;;26.95;16.80;;;6.90;49.50;;;;;;5071896;28;20060;-82
2022/03/05 05:10:06;;;;;;;25.20;16.08;;;7.00;49.20;;;;;;5072423;28;20036;-82
2022/03/05 05:12:32;;;;;;;25.65;15.40;;;7.00;49.10;;;;;;5072288;28;20392;-83
2022/03/05 05:14:57;;;;;;;26.33;16.58;;;7.00;49.20;;;;;;5072738;28;20036;-82
2022/03/05 05:17:23;;;;;;;23.77;14.40;;;6.90;49.10;;;;;;5072622;28;20078;-81
2022/03/05 05:19:49;;;;;;;29.02;15.18;;;6.90;49.30;;;;;;5072630;28;20040;-81
2022/03/05 05:22:14;;;;;;;23.52;14.60;;;6.90;48.70;;;;;;5071887;28;20042;-82
2022/03/05 05:24:40;;;;;;;26.85;16.77;;;6.80;50.00;;;;;;5072297;28;20044;-81
2022/03/05 05:27:06;;;;;;;22.40;14.40;;;6.80;49.40;;;;;;5071756;28;20044;-81
2022/03/05 05:29:32;;;;;;;26.40;14.35;;;6.80;49.00;;;;;;5054175;28;20040;-81
2022/03/05 05:31:58;;;;;;;24.83;16.35;;;7.00;48.80;;;;;;5072572;28;20503;-81
2022/03/05 05:34:24;;;;;;;26.05;14.70;;;7.00;49.20;;;;;;5072186;28;20111;-82
2022/03/05 05:36:50;;;;;;;23.98;14.88;;;7.10;48.60;;;;;;5072249;28;20358;-81
2022/03/05 05:39:16;;;;;;;29.63;16.13;;;6.90;48.70;;;;;;5072045;28;20511;-82
2022/03/05 05:41:42;;;;;;;26.10;15.52;;;6.90;48.60;;;;;;5071393;28;20060;-81
2022/03/05 05:44:10;;;;;;;26.38;16.58;;;6.80;49.20;;;;;;5072259;28;20035;-81
2022/03/05 05:46:36;;;;;;;24.80;14.98;;;6.80;49.10;;;;;;5072319;28;20099;-81
2022/03/05 05:49:02;;;;;;;23.58;13.82;;;6.90;49.30;;;;;;5071185;28;20485;-81
2022/03/05 05:51:28;;;;;;;24.75;15.20;;;6.80;48.90;;;;;;5070001;28;20102;-81
2022/03/05 05:53:55;;;;;;;26.08;15.10;;;6.90;48.40;;;;;;5055781;28;20059;-82
2022/03/05 05:56:23;;;;;;;24.88;16.13;;;6.80;50.10;;;;;;5122730;22;20045;-94
2022/03/05 05:58:51;;;;;;;24.05;14.52;;;6.90;49.30;;;;;;5056925;28;20432;-96
2022/03/05 06:01:17;;;;;;;22.08;13.40;;;6.90;48.60;;;;;;5078538;28;20542;-95
2022/03/05 06:03:44;;;;;;;20.92;14.35;;;7.00;48.60;;;;;;5078214;28;20029;-94
2022/03/05 06:06:18;;;;;;;23.02;14.50;;;7.10;48.30;;;;;;5060094;28;20075;-94
2022/03/05 06:08:44;;;;;;;24.23;14.43;;;7.00;48.00;;;;;;5060582;28;20349;-93
2022/03/05 06:11:10;;;;;;;23.08;12.93;;;7.00;48.10;;;;;;5062958;28;20092;-95
2022/03/05 06:13:37;;;;;;;24.67;15.10;;;7.00;48.40;;;;;;5062346;28;20040;-96
2022/03/05 06:16:06;;;;;;;26.13;15.25;;;7.10;48.40;;;;;;5082796;28;20021;-96
2022/03/05 06:18:37;;;;;;;23.80;13.07;;;7.10;48.80;;;;;;5082217;28;20036;-96
2022/03/05 06:21:05;;;;;;;23.10;12.48;;;7.20;48.00;;;;;;5083742;28;20115;-95
2022/03/05 06:23:33;;;;;;;22.13;14.50;;;7.30;47.80;;;;;;5078418;28;20514;-96
2022/03/05 06:25:58;;;;;;;22.45;13.43;;;7.20;47.70;;;;;;5068011;28;20041;-95
2022/03/05 06:28:27;;;;;;;29.85;13.48;;;7.20;47.80;;;;;;5064486;28;20043;-96
2022/03/05 06:31:02;;;;;;;21.30;12.93;;;7.20;47.40;;;;;;5075395;28;20372;-92
2022/03/05 06:33:29;;;;;;;18.58;11.55;;;7.20;48.10;;;;;;5080943;28;20045;-95
2022/03/05 06:36:13;;;;;;;17.95;11.05;;;7.30;46.70;;;;;;5084869;28;20105;-95
2022/03/05 06:38:39;;;;;;;15.55;10.40;;;7.40;46.80;;;;;;5088426;28;20036;-95
2022/03/05 06:41:05;;;;;;;16.33;10.43;;;7.40;45.40;;;;;;5068181;28;20396;-96
2022/03/05 06:43:31;;;;;;;22.42;10.52;;;7.50;46.50;;;;;;5049338;28;20112;-96
2022/03/05 06:45:59;;;;;;;20.67;10.95;;;7.40;45.90;;;;;;5053029;28;20071;-93
2022/03/05 06:48:29;;;;;;;20.10;11.07;;;7.40;45.90;;;;;;5085161;28;20039;-96
2022/03/05 06:50:55;;;;;;;16.25;9.95;;;7.30;46.90;;;;;;5084309;28;20477;-95
2022/03/05 06:53:24;;;;;;;19.25;11.32;;;7.30;46.50;;;;;;5084962;28;20063;-95
2022/03/05 06:55:52;;;;;;;17.05;10.95;;;7.30;46.40;;;;;;5050998;28;20025;-92
2022/03/05 06:58:22;;;;;;;20.85;10.05;;;7.20;46.60;;;;;;5066100;28;20047;-93
2022/03/05 07:00:48;;;;;;;;;;;7.30;46.60;;;;;;5065996;28;20044;-92
2022/03/05 07:03:24;;;;;;;20.48;9.80;;;7.40;45.00;;;;;;5067276;28;20307;-93
2022/03/05 07:05:49;;;;;;;14.60;9.43;;;7.40;46.10;;;;;;5077959;28;20036;-90
2022/03/05 07:08:15;;;;;;;16.88;11.05;;;7.50;45.70;;;;;;5060146;28;20040;-92
2022/03/05 07:10:50;;;;;;;13.68;9.05;;;7.60;44.80;;;;;;5060528;28;20025;-95
2022/03/05 07:13:39;;;;;;;15.30;9.80;;;7.70;44.70;;;;;;5062170;28;20063;-94
2022/03/05 07:16:06;;;;;;;13.00;8.73;;;7.70;45.40;;;;;;5073181;28;20040;-96
2022/03/05 07:18:32;;;;;;;16.38;9.93;;;7.80;44.40;;;;;;5067793;28;20048;-96
2022/03/05 07:21:01;;;;;;;14.05;9.18;;;7.80;44.60;;;;;;5063359;28;20599;-94
2022/03/05 07:23:28;;;;;;;15.27;10.45;;;7.90;46.10;;;;;;5046696;28;20102;-95
2022/03/05 07:25:54;;;;;;;15.93;10.95;;;7.90;45.00;;;;;;5061933;28;20059;-96
2022/03/05 07:28:19;;;;;;;19.50;11.20;;;7.90;44.30;;;;;;5081411;28;20036;-96
2022/03/05 07:30:45;;;;;;;16.00;10.63;;;8.00;43.10;;;;;;5062337;28;20028;-96
2022/03/05 07:33:14;;;;;;;15.63;10.45;;;7.90;43.80;;;;;;5062319;28;20195;-94
2022/03/05 07:35:46;;;;;;;15.45;10.13;;;7.90;42.90;;;;;;5061058;28;20404;-95
2022/03/05 07:38:15;;;;;;;18.88;11.40;;;7.90;42.90;;;;;;5062393;28;20032;-95
2022/03/05 07:40:40;;;;;;;16.83;10.25;;;7.90;44.30;;;;;;5061774;28;20344;-94
2022/03/05 07:43:06;;;;;;;14.63;10.25;;;8.00;43.10;;;;;;5060028;28;20037;-94
2022/03/05 07:45:41;;;;;;;17.02;10.63;;;8.10;43.60;;;;;;5059331;28;20037;-94
2022/03/05 07:48:07;;;;;;;17.27;10.45;;;8.10;42.60;;;;;;5075509;28;20088;-95
2022/03/05 07:50:32;;;;;;;15.90;10.10;;;8.10;43.00;;;;;;5059166;28;20381;-94
2022/03/05 07:52:58;;;;;;;12.63;8.70;;;8.20;42.80;;;;;;5059841;28;20531;-94
2022/03/05 07:55:24;;;;;;;14.10;8.68;;;8.20;42.50;;;;;;5060622;28;20039;-93
2022/03/05 07:57:56;;;;;;;15.23;9.60;;;8.40;42.30;;;;;;5059309;28;20063;-94
2022/03/05 08:00:21;;;;;;;15.05;10.07;;;8.50;42.10;;;;;;5087464;28;20048;-93
2022/03/05 08:02:47;;;;;;;20.65;10.35;;;8.60;44.40;;;;;;5040847;28;20032;-94
2022/03/05 08:05:13;;;;;;;14.63;9.05;;;8.70;43.30;;;;;;5058940;28;20044;-94
2022/03/05 08:07:39;;;;;;;13.90;9.38;;;8.80;46.50;;;;;;5058962;28;20078;-95
2022/03/05 08:10:07;;;;;;;15.18;9.98;;;8.90;42.90;;;;;;5076894;28;20032;-94
2022/03/05 08:12:34;;;;;;;18.50;11.80;;;9.00;41.60;;;;;;5061849;28;20048;-93
2022/03/05 08:15:11;;;;;;;14.63;9.75;;;9.00;42.30;;;;;;5069554;28;20119;-93
2022/03/05 08:17:47;;;;;;;15.73;8.85;;;9.10;42.50;;;;;;5073154;28;20037;-93
2022/03/05 08:20:12;;;;;;;13.88;8.77;;;9.20;41.90;;;;;;5080016;28;20029;-93
2022/03/05 08:22:39;;;;;;;13.85;9.27;;;9.30;41.10;;;;;;5082787;28;20040;-93
2022/03/05 08:25:08;;;;;;;18.10;10.30;;;9.30;39.30;;;;;;5063650;28;20024;-94
2022/03/05 08:27:34;;;;;;;13.43;9.20;;;9.40;41.00;;;;;;5061938;28;20044;-93
2022/03/05 08:30:00;;;;;;;12.60;9.73;;;9.50;40.60;;;;;;5060817;28;20036;-95
2022/03/05 08:32:25;;;;;;;13.68;9.32;;;9.50;39.50;;;;;;5060011;28;20063;-93
2022/03/05 08:34:55;;;;;;;13.13;8.82;;;9.60;40.00;;;;;;5061141;28;20048;-94
2022/03/05 08:37:27;;;;;;;14.68;9.35;;;9.70;39.10;;;;;;5078982;28;20036;-95
2022/03/05 08:39:54;;;;;;;11.38;8.27;;;9.80;39.70;;;;;;5062173;28;20033;-93
2022/03/05 08:42:20;;;;;;;11.82;8.95;;;9.80;39.90;;;;;;5061264;28;20044;-94
2022/03/05 08:44:53;;;;;;;13.93;8.20;;;9.70;39.40;;;;;;5063917;28;20020;-94
2022/03/05 08:47:31;;;;;;;10.65;8.48;;;9.90;39.30;;;;;;5084174;28;20036;-93
2022/03/05 08:49:56;;;;;;;11.88;8.60;;;10.00;38.70;;;;;;5094117;28;20046;-94
2022/03/05 08:52:36;;;;;;;;;;;;;;;;;;;;;
2022/03/05 08:55:04;;;;;;;11.57;9.10;;;10.20;39.20;;;;;;5077780;28;20100;-94
2022/03/05 08:57:35;;;;;;;14.75;8.23;;;10.30;36.60;;;;;;5058132;28;20048;-96
2022/03/05 09:00:11;;;;;;;11.90;7.45;;;10.30;36.20;;;;;;5024830;28;20119;-94
2022/03/05 09:02:37;;;;;;;11.15;8.05;;;10.50;36.20;;;;;;5059096;28;20032;-95
2022/03/05 09:05:04;;;;;;;11.60;8.02;;;10.60;36.60;;;;;;5059503;28;20032;-95
2022/03/05 09:07:30;;;;;;;11.45;7.45;;;10.70;37.20;;;;;;5057852;28;20373;-94
2022/03/05 09:09:56;;;;;;;11.68;8.40;;;10.80;36.70;;;;;;5053717;28;20380;-95
2022/03/05 09:12:26;;;;;;;10.60;7.43;;;10.90;36.30;;;;;;5059438;28;20116;-94
2022/03/05 09:14:52;;;;;;;;;;;11.10;35.40;;;;;;5059402;28;20029;-95
2022/03/05 09:17:18;;;;;;;10.35;6.47;;;11.20;36.60;;;;;;5044497;23;19925;-80
2022/03/05 09:19:44;;;;;;;10.77;7.53;;;11.40;34.60;;;;;;5052813;28;20485;-82
2022/03/05 09:22:10;;;;;;;12.40;7.68;;;11.50;35.40;;;;;;5029156;28;20123;-82
2022/03/05 09:24:37;;;;;;;11.13;7.97;;;11.70;35.00;;;;;;5051420;28;20116;-82
2022/03/05 09:27:03;;;;;;;9.95;7.22;;;11.80;34.60;;;;;;5050352;28;20090;-81
2022/03/05 09:29:29;;;;;;;13.15;8.23;;;11.80;33.00;;;;;;5033428;28;20063;-84
2022/03/05 09:31:55;;;;;;;9.80;7.13;;;11.90;33.80;;;;;;5032288;28;20037;-83
2022/03/05 09:34:21;;;;;;;8.93;7.15;;;11.80;33.30;;;;;;5041547;28;20029;-83
2022/03/05 09:36:46;;;;;;;8.95;6.38;;;11.80;34.10;;;;;;5035353;28;20025;-83
2022/03/05 09:39:12;;;;;;;15.50;6.88;;;11.90;35.30;;;;;;5050653;28;20033;-83
2022/03/05 09:41:40;;;;;;;11.32;7.40;;;12.10;34.00;;;;;;5037113;28;20066;-84
2022/03/05 09:44:06;;;;;;;9.13;6.90;;;12.30;33.70;;;;;;5058546;28;20041;-83
2022/03/05 09:46:32;;;;;;;9.30;6.43;;;12.40;32.30;;;;;;5035783;28;20072;-81
2022/03/05 09:48:59;;;;;;;9.82;6.95;;;12.50;34.20;;;;;;5061605;28;20076;-81
2022/03/05 09:51:25;;;;;;;7.57;6.00;;;12.70;33.00;;;;;;5036081;28;20041;-82
2022/03/05 09:53:54;;;;;;;9.95;7.13;;;12.90;33.20;;;;;;5039805;28;20029;-83
2022/03/05 09:56:21;;;;;;;8.10;6.32;;;13.00;32.20;;;;;;5034945;28;20040;-82
2022/03/05 09:58:51;;;;;;;8.75;7.10;;;13.10;31.30;;;;;;5051897;28;20131;-81
2022/03/05 10:01:18;;;;;;;7.78;6.32;;;13.20;31.20;;;;;;5034478;28;20505;-81
2022/03/05 10:03:51;;;;;;;8.10;6.40;;;13.30;31.30;;;;;;5048282;28;20090;-81
2022/03/05 10:06:22;;;;;;;8.73;6.85;;;13.40;32.10;;;;;;5054333;28;20064;-82
2022/03/05 10:08:52;;;;;;;11.90;6.82;;;13.70;31.90;;;;;;5034150;28;20044;-81
2022/03/05 10:11:19;;;;;;;9.47;7.10;;;13.80;31.60;;;;;;5053702;28;20493;-81
2022/03/05 10:13:45;;;;;;;9.63;7.28;;;13.90;29.70;;;;;;5055804;28;20033;-81
2022/03/05 10:16:35;;;;;;;9.82;7.10;;;14.00;30.10;;;;;;5056965;28;20115;-80
2022/03/05 10:19:22;;;;;;;9.75;6.65;;;14.10;29.50;;;;;;5043396;28;20124;-80
2022/03/05 10:22:08;;;;;;;14.40;8.40;;;14.00;29.00;;;;;;5059856;28;20099;-80
2022/03/05 10:24:38;;;;;;;9.40;7.28;;;14.00;29.00;;;;;;5061211;28;20033;-81
2022/03/05 10:27:06;;;;;;;10.00;7.25;;;14.00;29.50;;;;;;5039119;28;20036;-81
2022/03/05 10:29:37;;;;;;;9.73;7.63;;;14.10;29.60;;;;;;5063075;28;20037;-81
2022/03/05 10:32:06;;;;;;;13.20;8.27;;;14.10;29.10;;;;;;5059121;28;20045;-81
2022/03/05 10:34:41;;;;;;;13.63;7.72;;;14.20;28.80;;;;;;5035680;28;20167;-81
2022/03/05 10:37:08;;;;;;;11.57;8.70;;;14.30;29.50;;;;;;5062439;28;20444;-80
2022/03/05 10:39:34;;;;;;;11.48;8.27;;;14.50;28.10;;;;;;5056606;28;20039;-82
2022/03/05 10:42:00;;;;;;;9.55;7.50;;;14.60;29.00;;;;;;5039753;28;20504;-82
2022/03/05 10:44:26;;;;;;;10.73;8.00;;;14.60;28.70;;;;;;5037972;28;20102;-88
2022/03/05 10:46:59;;;;;;;9.85;7.72;;;14.30;28.50;;;;;;5059414;28;20481;-82
2022/03/05 10:49:36;;;;;;;11.80;7.78;;;14.50;28.70;;;;;;5052206;28;20037;-82
2022/03/05 10:52:02;;;;;;;15.18;8.10;;;14.60;28.70;;;;;;5049437;28;20155;-81
2022/03/05 10:54:41;;;;;;;14.02;8.68;;;14.70;28.50;;;;;;5057644;28;20041;-81
2022/03/05 10:57:09;;;;;;;10.35;7.30;;;14.80;27.80;;;;;;5058049;28;20037;-81
2022/03/05 10:59:40;;;;;;;9.90;7.68;;;15.00;27.50;;;;;;5036445;28;20044;-82
2022/03/05 11:02:11;;;;;;;9.10;7.50;;;15.10;27.60;;;;;;5054730;28;20048;-81
2022/03/05 11:04:39;;;;;;;9.05;7.47;;;15.30;28.00;;;;;;5037875;28;20489;-83
2022/03/05 11:07:06;;;;;;;9.15;7.40;;;15.50;27.80;;;;;;5054755;28;20060;-82
2022/03/05 11:09:34;;;;;;;9.85;7.80;;;15.50;26.90;;;;;;5054963;28;20063;-79
2022/03/05 11:12:01;;;;;;;12.90;8.25;;;15.50;28.00;;;;;;5049967;28;20401;-79
2022/03/05 11:14:28;;;;;;;10.75;7.80;;;15.50;28.50;;;;;;5054500;28;20037;-79
2022/03/05 11:16:55;;;;;;;10.85;8.13;;;15.70;30.70;;;;;;5036528;28;20139;-79
2022/03/05 11:19:23;;;;;;;9.85;8.30;;;15.80;28.80;;;;;;5049367;28;20127;-79
2022/03/05 11:21:49;;;;;;;12.85;8.30;;;15.80;26.90;;;;;;5036455;28;20041;-79
2022/03/05 11:24:21;;;;;;;11.50;7.95;;;15.70;29.60;;;;;;5052678;28;20385;-79
2022/03/05 11:26:52;;;;;;;9.55;7.18;;;15.80;27.30;;;;;;5052841;28;20380;-78
2022/03/05 11:29:27;;;;;;;8.45;6.68;;;15.90;26.00;;;;;;5052662;28;20037;-79
2022/03/05 15:16:47;;;;;;;13.27;8.68;;;12.50;37.70;;;;;;5133342;23;20469;-85
2022/03/05 15:19:15;;;;;;;13.48;9.07;;;12.50;37.40;;;;;;5002856;28;20058;-84
2022/03/05 15:21:41;;;;;;;19.98;9.23;;;12.40;37.00;;;;;;4989884;28;20045;-81
2022/03/05 15:24:07;;;;;;;13.00;8.98;;;12.20;37.00;;;;;;4981903;28;20062;-81
2022/03/05 15:26:33;;;;;;;15.95;9.52;;;12.10;37.70;;;;;;5012115;28;20041;-82
2022/03/05 15:28:58;;;;;;;15.70;9.48;;;12.20;37.20;;;;;;5010249;28;20033;-84
2022/03/05 15:31:24;;;;;;;19.35;9.07;;;12.10;37.00;;;;;;5001773;28;20498;-84
2022/03/05 15:33:50;;;;;;;18.40;9.60;;;12.00;36.50;;;;;;4987699;28;20490;-85
2022/03/05 15:36:17;;;;;;;19.52;9.88;;;12.00;35.70;;;;;;4978954;28;20053;-86
2022/03/05 15:38:44;;;;;;;17.15;9.57;;;12.00;35.50;;;;;;4979760;28;20037;-86
2022/03/05 15:41:11;;;;;;;16.52;8.88;;;11.90;36.40;;;;;;4988298;28;20065;-87
2022/03/05 15:43:37;;;;;;;17.92;8.80;;;11.90;36.30;;;;;;5013820;28;20057;-86
2022/03/05 15:46:06;;;;;;;17.50;9.18;;;11.90;36.30;;;;;;4977998;28;20034;-86
2022/03/05 15:48:32;;;;;;;18.67;8.65;;;11.90;37.40;;;;;;4996988;28;20053;-86
2022/03/05 15:50:58;;;;;;;13.07;8.55;;;11.90;35.60;;;;;;4999804;28;20405;-86
2022/03/05 15:53:24;;;;;;;19.00;9.52;;;12.00;36.10;;;;;;5013649;28;20087;-83
2022/03/05 15:55:50;;;;;;;16.10;9.65;;;11.90;36.20;;;;;;4980860;28;20046;-85
2022/03/05 15:58:16;;;;;;;18.73;9.50;;;11.90;36.00;;;;;;4988890;28;20033;-82
2022/03/05 16:00:42;;;;;;;16.45;8.93;;;11.80;35.80;;;;;;5025372;28;20042;-83
2022/03/05 16:03:08;;;;;;;14.35;8.93;;;11.80;35.00;;;;;;5014277;28;20038;-83
2022/03/05 16:05:34;;;;;;;16.95;9.10;;;11.70;35.30;;;;;;5010569;28;20037;-84
2022/03/05 16:08:00;;;;;;;18.95;9.27;;;11.70;35.50;;;;;;5034556;28;20029;-83
2022/03/05 16:10:26;;;;;;;16.00;8.88;;;11.70;35.80;;;;;;5016230;28;20041;-83
2022/03/05 16:12:52;;;;;;;17.30;9.73;;;11.70;35.00;;;;;;5001868;28;20038;-81
2022/03/05 16:15:24;;;;;;;13.63;9.27;;;11.60;37.00;;;;;;5011971;28;20107;-82
2022/03/05 16:17:50;;;;;;;15.38;8.30;;;11.60;35.40;;;;;;4985440;28;20053;-82
2022/03/05 16:20:16;;;;;;;15.25;9.43;;;11.50;35.70;;;;;;4989486;28;20035;-82
2022/03/05 16:22:42;;;;;;;14.75;8.77;;;11.50;35.80;;;;;;4984022;28;20039;-83
2022/03/05 16:25:08;;;;;;;22.50;9.60;;;11.50;35.80;;;;;;4993885;28;20486;-83